createdAt,value
2018-04-02T00:00:58.070Z,99.99
2018-04-02T00:01:58.105Z,99.99
2018-04-02T00:02:58.060Z,99.99
2018-04-02T00:03:58.064Z,99.99
2018-04-02T00:04:58.074Z,99.99
2018-04-02T00:05:58.066Z,99.99
2018-04-02T00:06:58.067Z,99.99
2018-04-02T00:07:58.060Z,99.99
2018-04-02T00:08:58.056Z,99.99
2018-04-02T00:09:58.060Z,99.99
2018-04-02T00:10:58.069Z,99.99
2018-04-02T00:11:58.070Z,99.99
2018-04-02T00:12:58.066Z,99.99
2018-04-02T00:13:58.068Z,99.99
2018-04-02T00:14:58.074Z,99.99
2018-04-02T00:15:58.062Z,99.99
2018-04-02T00:16:58.055Z,99.99
2018-04-02T00:17:58.166Z,99.99
2018-04-02T00:18:58.066Z,99.99
2018-04-02T00:19:58.064Z,99.99
2018-04-02T00:20:58.064Z,99.99
2018-04-02T00:21:58.051Z,99.99
2018-04-02T00:22:58.060Z,99.99
2018-04-02T00:23:58.111Z,99.99
2018-04-02T00:24:58.064Z,99.99
2018-04-02T00:25:58.069Z,99.99
2018-04-02T00:26:58.064Z,99.99
2018-04-02T00:27:58.062Z,99.99
2018-04-02T00:28:58.060Z,99.99
2018-04-02T00:29:58.065Z,99.99
2018-04-02T00:30:58.148Z,99.99
2018-04-02T00:31:58.055Z,99.99
2018-04-02T00:32:58.055Z,99.99
2018-04-02T00:33:58.063Z,99.99
2018-04-02T00:34:58.051Z,99.99
2018-04-02T00:35:58.060Z,99.99
2018-04-02T00:36:58.057Z,99.99
2018-04-02T00:37:58.066Z,99.99
2018-04-02T00:38:58.056Z,99.99
2018-04-02T00:39:58.060Z,99.99
2018-04-02T00:40:58.060Z,99.99
2018-04-02T00:41:58.051Z,99.99
2018-04-02T00:42:58.050Z,99.99
2018-04-02T00:43:58.058Z,99.99
2018-04-02T00:44:58.060Z,99.99
2018-04-02T00:45:58.046Z,99.99
2018-04-02T00:46:58.056Z,99.99
2018-04-02T00:47:58.057Z,99.99
2018-04-02T00:48:58.106Z,99.99
2018-04-02T00:49:58.050Z,99.99
2018-04-02T00:50:58.051Z,99.99
2018-04-02T00:51:58.053Z,99.99
2018-04-02T00:52:58.056Z,99.99
2018-04-02T00:53:58.056Z,99.99
2018-04-02T00:54:58.053Z,99.99
2018-04-02T00:55:58.056Z,99.99
2018-04-02T00:56:58.043Z,99.99
2018-04-02T00:57:58.047Z,99.99
2018-04-02T00:58:58.042Z,99.99
2018-04-02T00:59:58.051Z,99.99
2018-04-02T01:00:58.038Z,99.99
2018-04-02T01:01:58.159Z,99.99
2018-04-02T01:02:58.056Z,99.99
2018-04-02T01:03:58.052Z,99.99
2018-04-02T01:04:58.042Z,99.99
2018-04-02T01:05:58.045Z,99.99
2018-04-02T01:06:58.049Z,99.99
2018-04-02T01:07:58.051Z,99.99
2018-04-02T01:08:58.044Z,99.99
2018-04-02T01:09:58.034Z,99.99
2018-04-02T01:10:58.043Z,99.99
2018-04-02T01:11:58.054Z,99.99
2018-04-02T01:12:58.041Z,99.99
2018-04-02T01:13:58.042Z,99.99
2018-04-02T01:14:58.050Z,99.99
2018-04-02T01:15:58.044Z,99.99
2018-04-02T01:16:58.049Z,99.99
2018-04-02T01:17:58.043Z,99.99
2018-04-02T01:18:58.035Z,99.99
2018-04-02T01:19:58.050Z,99.99
2018-04-02T01:20:58.056Z,99.99
2018-04-02T01:21:58.046Z,99.99
2018-04-02T01:22:58.036Z,99.99
2018-04-02T01:23:58.051Z,99.99
2018-04-02T01:24:58.043Z,99.99
2018-04-02T01:25:58.047Z,99.99
2018-04-02T01:26:58.041Z,99.99
2018-04-02T01:27:58.099Z,99.99
2018-04-02T01:28:58.245Z,99.99
2018-04-02T01:29:58.035Z,99.99
2018-04-02T01:30:58.075Z,99.99
2018-04-02T01:31:58.038Z,99.99
2018-04-02T01:32:58.033Z,99.99
2018-04-02T01:33:58.036Z,99.99
2018-04-02T01:34:58.076Z,99.99
2018-04-02T01:35:58.032Z,99.99
2018-04-02T01:36:58.035Z,99.99
2018-04-02T01:37:58.035Z,99.99
2018-04-02T01:38:58.032Z,99.99
2018-04-02T01:39:58.034Z,99.99
2018-04-02T01:40:58.040Z,99.99
2018-04-02T01:41:58.031Z,99.99
2018-04-02T01:42:58.035Z,99.99
2018-04-02T01:43:58.034Z,99.99
2018-04-02T01:44:58.026Z,99.99
2018-04-02T01:45:58.086Z,99.99
2018-04-02T01:46:58.031Z,99.99
2018-04-02T01:47:58.029Z,99.99
2018-04-02T01:48:58.021Z,99.99
2018-04-02T01:49:58.025Z,99.99
2018-04-02T01:50:58.029Z,99.99
2018-04-02T01:51:58.029Z,99.99
2018-04-02T01:52:58.030Z,99.99
2018-04-02T01:53:58.029Z,99.99
2018-04-02T01:54:58.030Z,99.99
2018-04-02T01:55:58.026Z,99.99
2018-04-02T01:56:58.066Z,99.99
2018-04-02T01:57:58.022Z,99.99
2018-04-02T01:58:58.616Z,99.99
2018-04-02T01:59:58.010Z,99.99
2018-04-02T02:00:58.025Z,99.99
2018-04-02T02:01:58.029Z,99.99
2018-04-02T02:02:58.016Z,99.99
2018-04-02T02:03:58.011Z,99.99
2018-04-02T02:04:58.019Z,99.99
2018-04-02T02:05:58.026Z,99.99
2018-04-02T02:06:58.019Z,99.99
2018-04-02T02:07:58.032Z,99.99
2018-04-02T02:08:58.012Z,99.99
2018-04-02T02:09:58.025Z,99.99
2018-04-02T02:10:58.018Z,99.99
2018-04-02T02:11:58.039Z,99.99
2018-04-02T02:12:58.027Z,99.99
2018-04-02T02:13:58.025Z,99.99
2018-04-02T02:14:58.038Z,99.99
2018-04-02T02:15:58.014Z,99.99
2018-04-02T02:16:58.015Z,99.99
2018-04-02T02:17:58.013Z,99.99
2018-04-02T02:18:58.005Z,99.99
2018-04-02T02:19:58.010Z,99.99
2018-04-02T02:20:58.021Z,99.99
2018-04-02T02:21:58.007Z,99.99
2018-04-02T02:22:58.010Z,99.99
2018-04-02T02:23:58.003Z,99.87
2018-04-02T02:24:58.009Z,99.99
2018-04-02T02:25:58.009Z,99.77
2018-04-02T02:26:58.010Z,99.68
2018-04-02T02:27:58.022Z,99.30
2018-04-02T02:28:58.004Z,99.68
2018-04-02T02:29:58.135Z,99.99
2018-04-02T02:30:58.010Z,99.99
2018-04-02T02:31:58.005Z,99.68
2018-04-02T02:32:58.014Z,99.49
2018-04-02T02:33:58.006Z,99.99
2018-04-02T02:34:58.055Z,99.99
2018-04-02T02:35:58.002Z,99.99
2018-04-02T02:36:58.034Z,99.99
2018-04-02T02:37:58.009Z,99.99
2018-04-02T02:38:58.007Z,99.99
2018-04-02T02:39:58.008Z,99.99
2018-04-02T02:40:58.007Z,99.99
2018-04-02T02:41:58.009Z,99.99
2018-04-02T02:42:58.622Z,99.99
2018-04-02T02:43:58.007Z,99.99
2018-04-02T02:44:58.005Z,99.99
2018-04-02T02:45:58.003Z,99.99
2018-04-02T02:46:58.004Z,99.99
2018-04-02T02:47:58.002Z,99.99
2018-04-02T02:48:58.000Z,99.87
2018-04-02T02:49:58.005Z,99.99
2018-04-02T02:50:58.009Z,99.99
2018-04-02T02:51:58.005Z,99.99
2018-04-02T02:52:57.999Z,99.99
2018-04-02T02:53:57.997Z,99.99
2018-04-02T02:54:58.000Z,99.99
2018-04-02T02:55:58.045Z,99.99
2018-04-02T02:56:58.002Z,99.99
2018-04-02T02:57:57.988Z,99.99
2018-04-02T02:58:58.001Z,99.99
2018-04-02T02:59:58.003Z,99.99
2018-04-02T03:00:58.009Z,99.99
2018-04-02T03:01:58.002Z,99.99
2018-04-02T03:02:57.994Z,99.99
2018-04-02T03:03:58.028Z,99.99
2018-04-02T03:04:57.994Z,99.99
2018-04-02T03:05:58.001Z,99.99
2018-04-02T03:06:58.009Z,99.99
2018-04-02T03:07:57.997Z,99.99
2018-04-02T03:08:58.007Z,99.99
2018-04-02T03:09:57.989Z,99.99
2018-04-02T03:10:58.003Z,99.99
2018-04-02T03:11:57.999Z,99.99
2018-04-02T03:12:57.995Z,99.99
2018-04-02T03:13:57.982Z,99.99
2018-04-02T03:14:57.983Z,99.99
2018-04-02T03:15:57.992Z,99.99
2018-04-02T03:16:58.000Z,99.99
2018-04-02T03:17:57.986Z,99.99
2018-04-02T03:18:57.984Z,99.99
2018-04-02T03:19:57.991Z,99.99
2018-04-02T03:20:57.994Z,99.99
2018-04-02T03:21:58.018Z,99.99
2018-04-02T03:22:57.989Z,99.99
2018-04-02T03:23:57.988Z,99.99
2018-04-02T03:24:57.981Z,99.99
2018-04-02T03:25:57.983Z,99.99
2018-04-02T03:26:58.630Z,99.99
2018-04-02T03:27:57.988Z,99.99
2018-04-02T03:28:57.986Z,99.99
2018-04-02T03:29:57.988Z,99.99
2018-04-02T03:30:58.069Z,99.99
2018-04-02T03:31:57.983Z,99.99
2018-04-02T03:32:57.982Z,99.99
2018-04-02T03:33:57.980Z,99.99
2018-04-02T03:34:57.979Z,99.99
2018-04-02T03:35:57.995Z,99.99
2018-04-02T03:36:57.988Z,99.99
2018-04-02T03:37:57.996Z,99.99
2018-04-02T03:38:57.986Z,99.99
2018-04-02T03:39:58.050Z,99.99
2018-04-02T03:40:58.003Z,99.99
2018-04-02T03:41:57.987Z,99.99
2018-04-02T03:42:57.984Z,99.99
2018-04-02T03:43:57.983Z,99.99
2018-04-02T03:44:57.979Z,99.99
2018-04-02T03:45:57.980Z,99.99
2018-04-02T03:46:57.985Z,99.99
2018-04-02T03:47:57.979Z,99.99
2018-04-02T03:48:57.972Z,99.99
2018-04-02T03:49:57.978Z,99.99
2018-04-02T03:50:58.007Z,99.99
2018-04-02T03:51:57.983Z,99.99
2018-04-02T03:52:58.030Z,99.99
2018-04-02T03:53:57.972Z,99.99
2018-04-02T03:54:57.986Z,99.99
2018-04-02T03:55:57.978Z,99.99
2018-04-02T03:56:57.980Z,99.99
2018-04-02T03:57:57.975Z,99.99
2018-04-02T03:58:57.971Z,99.99
2018-04-02T03:59:57.973Z,99.99
2018-04-02T04:00:57.975Z,99.99
2018-04-02T04:01:57.980Z,99.99
2018-04-02T04:02:57.964Z,99.99
2018-04-02T04:03:58.638Z,99.99
2018-04-02T04:04:57.977Z,99.99
2018-04-02T04:05:57.966Z,99.99
2018-04-02T04:06:57.971Z,99.99
2018-04-02T04:07:57.981Z,99.99
2018-04-02T04:08:57.963Z,99.99
2018-04-02T04:09:57.976Z,99.99
2018-04-02T04:10:58.643Z,99.99
2018-04-02T04:11:57.965Z,99.99
2018-04-02T04:12:57.968Z,99.99
2018-04-02T04:13:57.963Z,99.99
2018-04-02T04:14:57.959Z,99.99
2018-04-02T04:15:57.961Z,99.99
2018-04-02T04:16:57.965Z,99.99
2018-04-02T04:17:57.985Z,99.99
2018-04-02T04:18:57.967Z,99.99
2018-04-02T04:19:57.974Z,99.99
2018-04-02T04:20:57.994Z,99.99
2018-04-02T04:21:58.640Z,99.99
2018-04-02T04:22:57.960Z,99.99
2018-04-02T04:23:57.959Z,99.99
2018-04-02T04:24:57.950Z,99.99
2018-04-02T04:25:57.948Z,99.99
2018-04-02T04:26:57.960Z,99.99
2018-04-02T04:27:57.949Z,99.99
2018-04-02T04:28:57.955Z,99.99
2018-04-02T04:29:57.952Z,99.99
2018-04-02T04:30:57.956Z,99.99
2018-04-02T04:31:57.950Z,99.99
2018-04-02T04:32:57.948Z,99.99
2018-04-02T04:33:57.956Z,99.99
2018-04-02T04:34:57.959Z,99.99
2018-04-02T04:35:57.950Z,99.99
2018-04-02T04:36:58.646Z,99.99
2018-04-02T04:37:57.960Z,99.99
2018-04-02T04:38:57.953Z,99.99
2018-04-02T04:39:57.972Z,99.99
2018-04-02T04:40:57.955Z,99.99
2018-04-02T04:41:57.957Z,99.99
2018-04-02T04:42:57.958Z,99.99
2018-04-02T04:43:57.949Z,99.99
2018-04-02T04:44:57.943Z,99.99
2018-04-02T04:45:57.938Z,99.99
2018-04-02T04:46:57.957Z,99.99
2018-04-02T04:47:57.944Z,99.99
2018-04-02T04:48:57.950Z,99.99
2018-04-02T04:49:57.961Z,99.99
2018-04-02T04:50:57.946Z,99.99
2018-04-02T04:51:57.954Z,99.99
2018-04-02T04:52:57.944Z,99.99
2018-04-02T04:53:57.940Z,99.99
2018-04-02T04:54:57.941Z,99.99
2018-04-02T04:55:57.942Z,99.99
2018-04-02T04:56:57.943Z,99.99
2018-04-02T04:57:57.936Z,99.99
2018-04-02T04:58:57.944Z,99.99
2018-04-02T04:59:57.938Z,99.99
2018-04-02T05:00:57.928Z,99.99
2018-04-02T05:01:57.936Z,99.99
2018-04-02T05:02:57.957Z,99.99
2018-04-02T05:03:57.943Z,99.99
2018-04-02T05:04:57.967Z,99.99
2018-04-02T05:05:57.979Z,99.99
2018-04-02T05:06:57.941Z,99.99
2018-04-02T05:07:57.993Z,99.99
2018-04-02T05:08:57.925Z,99.99
2018-04-02T05:09:57.942Z,99.99
2018-04-02T05:10:57.934Z,99.99
2018-04-02T05:11:57.931Z,99.99
2018-04-02T05:12:57.932Z,99.99
2018-04-02T05:13:57.931Z,99.99
2018-04-02T05:14:57.932Z,99.99
2018-04-02T05:15:57.924Z,99.99
2018-04-02T05:16:57.929Z,99.99
2018-04-02T05:17:57.932Z,99.99
2018-04-02T05:18:57.928Z,99.99
2018-04-02T05:19:57.931Z,99.99
2018-04-02T05:20:58.014Z,99.99
2018-04-02T05:21:57.927Z,99.99
2018-04-02T05:22:57.926Z,99.99
2018-04-02T05:23:57.930Z,99.99
2018-04-02T05:24:57.918Z,99.99
2018-04-02T05:25:57.936Z,99.99
2018-04-02T05:26:57.908Z,99.99
2018-04-02T05:27:57.926Z,99.99
2018-04-02T05:28:57.915Z,99.99
2018-04-02T05:29:57.924Z,99.99
2018-04-02T05:30:57.949Z,99.99
2018-04-02T05:31:57.922Z,99.99
2018-04-02T05:32:57.933Z,99.99
2018-04-02T05:33:57.920Z,99.99
2018-04-02T05:34:57.935Z,99.99
2018-04-02T05:35:57.916Z,99.99
2018-04-02T05:36:57.936Z,99.99
2018-04-02T05:37:57.915Z,99.99
2018-04-02T05:38:57.964Z,99.99
2018-04-02T05:39:57.919Z,99.99
2018-04-02T05:40:57.926Z,99.99
2018-04-02T05:41:57.909Z,99.99
2018-04-02T05:42:57.913Z,99.99
2018-04-02T05:43:57.908Z,99.99
2018-04-02T05:44:57.907Z,99.99
2018-04-02T05:45:57.904Z,99.99
2018-04-02T05:46:57.922Z,99.99
2018-04-02T05:47:57.900Z,99.99
2018-04-02T05:48:57.918Z,99.99
2018-04-02T05:49:57.909Z,99.99
2018-04-02T05:50:57.923Z,99.99
2018-04-02T05:51:57.903Z,99.99
2018-04-02T05:52:57.901Z,99.99
2018-04-02T05:53:57.908Z,99.99
2018-04-02T05:54:57.903Z,99.99
2018-04-02T05:55:57.908Z,99.99
2018-04-02T05:56:57.899Z,99.99
2018-04-02T05:57:57.902Z,99.99
2018-04-02T05:58:57.903Z,99.99
2018-04-02T05:59:57.964Z,99.99
2018-04-02T06:00:57.895Z,99.99
2018-04-02T06:01:57.924Z,99.99
2018-04-02T06:02:57.906Z,99.99
2018-04-02T06:03:57.902Z,99.99
2018-04-02T06:04:57.953Z,99.99
2018-04-02T06:05:57.900Z,99.99
2018-04-02T06:06:57.887Z,99.99
2018-04-02T06:07:57.893Z,99.99
2018-04-02T06:08:57.899Z,99.99
2018-04-02T06:09:57.888Z,99.99
2018-04-02T06:10:57.893Z,99.99
2018-04-02T06:11:57.895Z,99.99
2018-04-02T06:12:57.884Z,99.99
2018-04-02T06:13:57.891Z,99.99
2018-04-02T06:14:57.882Z,99.99
2018-04-02T06:15:57.898Z,99.99
2018-04-02T06:16:57.885Z,99.99
2018-04-02T06:17:58.013Z,99.99
2018-04-02T06:18:57.879Z,99.99
2018-04-02T06:19:57.884Z,99.99
2018-04-02T06:20:57.887Z,99.99
2018-04-02T06:21:57.892Z,99.99
2018-04-02T06:22:57.879Z,99.99
2018-04-02T06:23:57.885Z,99.99
2018-04-02T06:24:57.889Z,99.99
2018-04-02T06:25:57.884Z,99.99
2018-04-02T06:26:57.891Z,99.99
2018-04-02T06:27:57.876Z,99.99
2018-04-02T06:28:57.896Z,99.99
2018-04-02T06:29:57.892Z,99.99
2018-04-02T06:30:58.669Z,99.99
2018-04-02T06:31:57.884Z,99.99
2018-04-02T06:32:57.882Z,99.99
2018-04-02T06:33:57.884Z,99.99
2018-04-02T06:34:57.887Z,99.99
2018-04-02T06:35:57.888Z,99.99
2018-04-02T06:36:57.930Z,99.99
2018-04-02T06:37:57.875Z,99.99
2018-04-02T06:38:57.876Z,99.99
2018-04-02T06:39:57.882Z,99.99
2018-04-02T06:40:57.887Z,99.99
2018-04-02T06:41:57.880Z,99.99
2018-04-02T06:42:57.883Z,99.99
2018-04-02T06:43:57.886Z,99.99
2018-04-02T06:44:57.877Z,99.99
2018-04-02T06:45:57.885Z,99.99
2018-04-02T06:46:57.885Z,99.99
2018-04-02T06:47:57.884Z,99.99
2018-04-02T06:48:57.881Z,99.99
2018-04-02T06:49:57.900Z,99.99
2018-04-02T06:50:57.884Z,99.99
2018-04-02T06:51:57.888Z,99.99
2018-04-02T06:52:57.888Z,99.99
2018-04-02T06:53:57.890Z,99.99
2018-04-02T06:54:57.880Z,99.99
2018-04-02T06:55:57.871Z,99.99
2018-04-02T06:56:57.874Z,99.99
2018-04-02T06:57:57.888Z,99.99
2018-04-02T06:58:57.880Z,99.99
2018-04-02T06:59:57.884Z,99.99
2018-04-02T07:00:57.880Z,99.99
2018-04-02T07:01:57.888Z,99.99
2018-04-02T07:02:57.874Z,99.99
2018-04-02T07:03:57.880Z,99.99
2018-04-02T07:04:57.881Z,99.99
2018-04-02T07:05:57.884Z,99.99
2018-04-02T07:06:57.875Z,99.99
2018-04-02T07:07:57.882Z,99.99
2018-04-02T07:08:57.882Z,99.99
2018-04-02T07:09:57.883Z,99.99
2018-04-02T07:10:57.898Z,99.99
2018-04-02T07:11:57.877Z,99.99
2018-04-02T07:12:57.871Z,99.99
2018-04-02T07:13:57.876Z,99.97
2018-04-02T07:14:57.877Z,99.40
2018-04-02T07:15:57.884Z,99.21
2018-04-02T07:16:57.887Z,98.97
2018-04-02T07:17:57.877Z,98.93
2018-04-02T07:18:57.880Z,98.74
2018-04-02T07:19:57.885Z,98.17
2018-04-02T07:20:57.880Z,97.31
2018-04-02T07:21:57.885Z,97.97
2018-04-02T07:22:57.936Z,97.69
2018-04-02T07:23:57.878Z,98.07
2018-04-02T07:24:57.879Z,98.45
2018-04-02T07:25:57.882Z,97.41
2018-04-02T07:26:57.875Z,97.60
2018-04-02T07:27:57.891Z,96.93
2018-04-02T07:28:57.871Z,97.31
2018-04-02T07:29:57.874Z,96.93
2018-04-02T07:30:57.884Z,96.74
2018-04-02T07:31:57.889Z,97.50
2018-04-02T07:32:57.894Z,97.60
2018-04-02T07:33:57.874Z,98.07
2018-04-02T07:34:57.884Z,97.50
2018-04-02T07:35:57.888Z,97.97
2018-04-02T07:36:57.888Z,98.07
2018-04-02T07:37:57.886Z,97.69
2018-04-02T07:38:57.887Z,97.93
2018-04-02T07:39:57.892Z,96.69
2018-04-02T07:40:57.887Z,96.12
2018-04-02T07:41:57.892Z,94.27
2018-04-02T07:42:57.889Z,92.84
2018-04-02T07:43:57.900Z,92.36
2018-04-02T07:44:57.896Z,91.27
2018-04-02T07:45:57.897Z,89.61
2018-04-02T07:46:57.895Z,88.75
2018-04-02T07:47:57.896Z,86.93
2018-04-02T07:48:57.892Z,83.64
2018-04-02T07:49:57.893Z,79.43
2018-04-02T07:50:57.910Z,79.97
2018-04-02T07:51:57.906Z,81.02
2018-04-02T07:52:57.899Z,80.96
2018-04-02T07:53:57.904Z,82.64
2018-04-02T07:54:57.903Z,83.55
2018-04-02T07:55:58.692Z,84.98
2018-04-02T07:56:57.912Z,85.22
2018-04-02T07:57:57.917Z,86.22
2018-04-02T07:58:57.920Z,85.93
2018-04-02T07:59:57.934Z,85.74
2018-04-02T08:00:57.919Z,86.46
2018-04-02T08:01:57.925Z,86.36
2018-04-02T08:02:57.976Z,86.12
2018-04-02T08:03:57.921Z,85.17
2018-04-02T08:04:57.943Z,85.41
2018-04-02T08:05:57.944Z,85.70
2018-04-02T08:06:57.933Z,85.80
2018-04-02T08:07:57.935Z,85.41
2018-04-02T08:08:58.058Z,86.08
2018-04-02T08:09:57.951Z,83.06
2018-04-02T08:10:57.944Z,80.62
2018-04-02T08:11:57.939Z,78.62
2018-04-02T08:12:57.956Z,78.01
2018-04-02T08:13:57.959Z,79.59
2018-04-02T08:14:57.964Z,80.01
2018-04-02T08:15:57.962Z,79.72
2018-04-02T08:16:57.956Z,79.35
2018-04-02T08:17:57.970Z,80.07
2018-04-02T08:18:57.964Z,79.77
2018-04-02T08:19:57.974Z,78.10
2018-04-02T08:20:57.994Z,76.62
2018-04-02T08:21:58.695Z,76.90
2018-04-02T08:22:57.983Z,77.00
2018-04-02T08:23:57.984Z,77.91
2018-04-02T08:24:58.001Z,78.10
2018-04-02T08:25:57.981Z,78.44
2018-04-02T08:26:58.005Z,79.25
2018-04-02T08:27:57.989Z,78.39
2018-04-02T08:28:57.997Z,77.30
2018-04-02T08:29:58.005Z,78.96
2018-04-02T08:30:58.007Z,79.15
2018-04-02T08:31:58.004Z,79.88
2018-04-02T08:32:58.005Z,78.86
2018-04-02T08:33:58.023Z,79.35
2018-04-02T08:34:58.013Z,78.81
2018-04-02T08:35:58.012Z,77.15
2018-04-02T08:36:58.022Z,76.18
2018-04-02T08:37:58.028Z,75.60
2018-04-02T08:38:58.037Z,75.03
2018-04-02T08:39:58.031Z,76.08
2018-04-02T08:40:58.036Z,75.30
2018-04-02T08:41:58.036Z,73.29
2018-04-02T08:42:58.045Z,73.16
2018-04-02T08:43:58.040Z,74.27
2018-04-02T08:44:58.053Z,75.76
2018-04-02T08:45:58.059Z,75.51
2018-04-02T08:46:58.059Z,74.46
2018-04-02T08:47:58.073Z,73.60
2018-04-02T08:48:58.072Z,74.23
2018-04-02T08:49:58.075Z,75.53
2018-04-02T08:50:58.077Z,77.62
2018-04-02T08:51:58.073Z,78.96
2018-04-02T08:52:58.135Z,79.11
2018-04-02T08:53:58.096Z,80.92
2018-04-02T08:54:58.115Z,81.30
2018-04-02T08:55:58.100Z,81.40
2018-04-02T08:56:58.098Z,80.54
2018-04-02T08:57:58.102Z,79.35
2018-04-02T08:58:58.110Z,78.10
2018-04-02T08:59:58.099Z,77.53
2018-04-02T09:00:58.133Z,76.71
2018-04-02T09:01:58.117Z,76.33
2018-04-02T09:02:58.117Z,77.53
2018-04-02T09:03:58.124Z,78.67
2018-04-02T09:04:58.132Z,79.06
2018-04-02T09:05:58.138Z,77.91
2018-04-02T09:06:58.145Z,78.01
2018-04-02T09:07:58.139Z,79.15
2018-04-02T09:08:58.141Z,79.44
2018-04-02T09:09:58.142Z,79.40
2018-04-02T09:10:58.156Z,78.10
2018-04-02T09:11:58.148Z,76.81
2018-04-02T09:12:58.149Z,76.67
2018-04-02T09:13:58.161Z,78.10
2018-04-02T09:14:58.153Z,78.01
2018-04-02T09:15:58.157Z,76.67
2018-04-02T09:16:58.168Z,76.96
2018-04-02T09:17:58.171Z,75.81
2018-04-02T09:18:58.174Z,77.01
2018-04-02T09:19:58.187Z,77.25
2018-04-02T09:20:58.177Z,78.35
2018-04-02T09:21:58.184Z,79.02
2018-04-02T09:22:58.196Z,79.35
2018-04-02T09:23:58.177Z,78.05
2018-04-02T09:24:58.192Z,76.67
2018-04-02T09:25:58.185Z,76.71
2018-04-02T09:26:58.210Z,76.33
2018-04-02T09:27:58.190Z,75.18
2018-04-02T09:28:58.202Z,76.14
2018-04-02T09:29:58.202Z,76.52
2018-04-02T09:30:58.255Z,76.33
2018-04-02T09:31:58.220Z,76.18
2018-04-02T09:32:58.216Z,75.32
2018-04-02T09:33:58.217Z,74.46
2018-04-02T09:34:58.218Z,75.13
2018-04-02T09:35:58.236Z,74.90
2018-04-02T09:36:58.245Z,74.55
2018-04-02T09:37:58.231Z,73.50
2018-04-02T09:38:58.237Z,72.30
2018-04-02T09:39:58.249Z,71.76
2018-04-02T09:40:58.265Z,69.79
2018-04-02T09:41:58.250Z,68.35
2018-04-02T09:42:58.246Z,68.35
2018-04-02T09:43:58.255Z,68.32
2018-04-02T09:44:58.271Z,68.10
2018-04-02T09:45:58.256Z,70.26
2018-04-02T09:46:58.264Z,71.50
2018-04-02T09:47:58.271Z,71.78
2018-04-02T09:48:58.278Z,72.42
2018-04-02T09:49:58.275Z,73.37
2018-04-02T09:50:58.281Z,73.66
2018-04-02T09:51:58.281Z,73.88
2018-04-02T09:52:58.282Z,72.45
2018-04-02T09:53:58.339Z,73.72
2018-04-02T09:54:58.313Z,75.34
2018-04-02T09:55:58.299Z,75.34
2018-04-02T09:56:58.309Z,75.24
2018-04-02T09:57:58.306Z,75.05
2018-04-02T09:58:58.309Z,75.34
2018-04-02T09:59:58.307Z,76.01
2018-04-02T10:00:58.324Z,76.20
2018-04-02T10:01:58.339Z,75.72
2018-04-02T10:02:58.321Z,75.05
2018-04-02T10:03:58.327Z,75.05
2018-04-02T10:04:58.373Z,75.62
2018-04-02T10:05:58.336Z,74.96
2018-04-02T10:06:58.336Z,75.05
2018-04-02T10:07:58.332Z,75.24
2018-04-02T10:08:58.331Z,76.57
2018-04-02T10:09:58.350Z,76.39
2018-04-02T10:10:58.345Z,75.62
2018-04-02T10:11:58.370Z,75.91
2018-04-02T10:12:58.352Z,75.49
2018-04-02T10:13:58.348Z,75.72
2018-04-02T10:14:58.360Z,75.53
2018-04-02T10:15:58.370Z,75.72
2018-04-02T10:16:58.362Z,75.15
2018-04-02T10:17:58.364Z,74.80
2018-04-02T10:18:58.373Z,73.91
2018-04-02T10:19:58.405Z,74.23
2018-04-02T10:20:58.370Z,74.08
2018-04-02T10:21:58.380Z,73.32
2018-04-02T10:22:58.380Z,72.45
2018-04-02T10:23:58.458Z,72.55
2018-04-02T10:24:58.383Z,72.93
2018-04-02T10:25:58.401Z,72.58
2018-04-02T10:26:58.401Z,71.06
2018-04-02T10:27:58.393Z,71.09
2018-04-02T10:28:58.418Z,68.99
2018-04-02T10:29:58.449Z,68.45
2018-04-02T10:30:58.407Z,67.91
2018-04-02T10:31:58.411Z,65.77
2018-04-02T10:32:58.425Z,66.35
2018-04-02T10:33:58.417Z,66.57
2018-04-02T10:34:58.490Z,67.21
2018-04-02T10:35:58.431Z,67.21
2018-04-02T10:36:58.425Z,67.11
2018-04-02T10:37:58.438Z,67.02
2018-04-02T10:38:58.431Z,67.65
2018-04-02T10:39:58.445Z,68.41
2018-04-02T10:40:58.449Z,68.48
2018-04-02T10:41:58.487Z,67.75
2018-04-02T10:42:58.445Z,67.46
2018-04-02T10:43:58.466Z,65.93
2018-04-02T10:44:58.538Z,65.68
2018-04-02T10:45:58.461Z,65.39
2018-04-02T10:46:58.476Z,65.30
2018-04-02T10:47:58.470Z,63.80
2018-04-02T10:48:58.477Z,63.16
2018-04-02T10:49:58.487Z,62.20
2018-04-02T10:50:58.489Z,60.32
2018-04-02T10:51:58.490Z,61.05
2018-04-02T10:52:58.490Z,60.86
2018-04-02T10:53:58.496Z,62.46
2018-04-02T10:54:58.515Z,62.40
2018-04-02T10:55:58.537Z,61.22
2018-04-02T10:56:58.526Z,62.17
2018-04-02T10:57:59.268Z,61.57
2018-04-02T10:58:58.531Z,60.13
2018-04-02T10:59:58.547Z,59.81
2018-04-02T11:00:58.553Z,58.73
2018-04-02T11:01:58.548Z,60.74
2018-04-02T11:02:58.560Z,60.96
2018-04-02T11:03:58.560Z,60.19
2018-04-02T11:04:58.577Z,59.08
2018-04-02T11:05:58.577Z,59.36
2018-04-02T11:06:58.582Z,58.59
2018-04-02T11:07:58.590Z,59.84
2018-04-02T11:08:58.592Z,59.39
2018-04-02T11:09:58.605Z,59.55
2018-04-02T11:10:58.611Z,59.97
2018-04-02T11:11:58.617Z,60.19
2018-04-02T11:12:58.646Z,59.88
2018-04-02T11:13:58.636Z,60.29
2018-04-02T11:14:58.642Z,60.19
2018-04-02T11:15:58.644Z,59.91
2018-04-02T11:16:58.649Z,59.36
2018-04-02T11:17:58.678Z,59.45
2018-04-02T11:18:58.668Z,59.78
2018-04-02T11:19:58.671Z,62.78
2018-04-02T11:20:58.673Z,64.50
2018-04-02T11:21:58.700Z,64.69
2018-04-02T11:22:58.679Z,65.52
2018-04-02T11:23:58.711Z,66.28
2018-04-02T11:24:58.707Z,67.81
2018-04-02T11:25:58.723Z,68.06
2018-04-02T11:26:58.716Z,68.06
2018-04-02T11:27:58.721Z,67.81
2018-04-02T11:28:58.734Z,67.62
2018-04-02T11:29:58.729Z,67.24
2018-04-02T11:30:58.728Z,67.91
2018-04-02T11:31:58.736Z,66.95
2018-04-02T11:32:58.755Z,67.91
2018-04-02T11:33:58.761Z,68.10
2018-04-02T11:34:58.763Z,68.76
2018-04-02T11:35:58.769Z,69.62
2018-04-02T11:36:58.766Z,69.15
2018-04-02T11:37:58.766Z,68.96
2018-04-02T11:38:58.776Z,70.83
2018-04-02T11:39:58.788Z,70.92
2018-04-02T11:40:58.787Z,71.15
2018-04-02T11:41:58.796Z,72.39
2018-04-02T11:42:58.815Z,72.68
2018-04-02T11:43:58.801Z,71.98
2018-04-02T11:44:58.802Z,72.36
2018-04-02T11:45:58.813Z,72.93
2018-04-02T11:46:58.813Z,73.69
2018-04-02T11:47:58.800Z,73.79
2018-04-02T11:48:58.916Z,74.08
2018-04-02T11:49:58.811Z,73.79
2018-04-02T11:50:58.819Z,74.69
2018-04-02T11:51:58.826Z,74.21
2018-04-02T11:52:58.827Z,73.73
2018-04-02T11:53:58.859Z,74.82
2018-04-02T11:54:58.849Z,72.58
2018-04-02T11:55:58.842Z,72.62
2018-04-02T11:56:58.842Z,72.81
2018-04-02T11:57:58.835Z,69.66
2018-04-02T11:58:58.847Z,70.20
2018-04-02T11:59:58.840Z,70.77
2018-04-02T12:00:58.856Z,70.33
2018-04-02T12:01:58.864Z,69.82
2018-04-02T12:02:58.866Z,70.87
2018-04-02T12:03:58.881Z,70.73
2018-04-02T12:04:58.874Z,72.68
2018-04-02T12:05:58.870Z,71.82
2018-04-02T12:06:58.946Z,70.10
2018-04-02T12:07:58.868Z,68.92
2018-04-02T12:08:58.880Z,69.15
2018-04-02T12:09:58.889Z,69.91
2018-04-02T12:10:58.882Z,70.01
2018-04-02T12:11:58.917Z,69.11
2018-04-02T12:12:58.893Z,69.15
2018-04-02T12:13:58.934Z,67.81
2018-04-02T12:14:58.895Z,67.05
2018-04-02T12:15:58.900Z,67.05
2018-04-02T12:16:58.920Z,65.71
2018-04-02T12:17:58.902Z,63.03
2018-04-02T12:18:58.904Z,62.84
2018-04-02T12:19:58.917Z,63.23
2018-04-02T12:20:58.926Z,62.65
2018-04-02T12:21:58.908Z,62.46
2018-04-02T12:22:58.932Z,62.46
2018-04-02T12:23:58.925Z,61.92
2018-04-02T12:24:58.937Z,61.54
2018-04-02T12:25:58.933Z,60.77
2018-04-02T12:26:58.932Z,61.06
2018-04-02T12:27:58.933Z,60.55
2018-04-02T12:28:58.938Z,60.27
2018-04-02T12:29:58.946Z,59.59
2018-04-02T12:30:58.959Z,59.15
2018-04-02T12:31:58.951Z,59.12
2018-04-02T12:32:58.965Z,59.05
2018-04-02T12:33:58.955Z,59.81
2018-04-02T12:34:58.962Z,59.44
2018-04-02T12:35:58.951Z,60.20
2018-04-02T12:36:58.969Z,60.96
2018-04-02T12:37:58.968Z,60.10
2018-04-02T12:38:58.967Z,59.27
2018-04-02T12:39:58.979Z,58.61
2018-04-02T12:40:58.977Z,57.81
2018-04-02T12:41:58.990Z,59.53
2018-04-02T12:42:59.016Z,59.34
2018-04-02T12:43:58.981Z,59.56
2018-04-02T12:44:58.987Z,59.40
2018-04-02T12:45:58.989Z,58.73
2018-04-02T12:46:58.993Z,57.48
2018-04-02T12:47:59.012Z,57.46
2018-04-02T12:48:59.003Z,58.12
2018-04-02T12:49:59.006Z,58.41
2018-04-02T12:50:59.011Z,58.32
2018-04-02T12:51:59.013Z,58.51
2018-04-02T12:52:59.006Z,58.80